Latest Weather Observations for Fingal

IDT60801

Issued at 8:05 am EST Saturday 30 August 2014 (issued every 30 minutes, with the page automatically refreshed every 10 minutes)

About weather observations | Map of weather stations | Latest weather observations for TAS | Other Formats
Station Details ID: 092012 Name: FINGAL (LEGGE STREET) Lat: -41.64 Lon: 147.97 Height: 237.0 m
Data from the previous 72 hours. | See also: Recent months at Fingal
Date/Time
EST
Temp
°C
App
Temp
°C
Dew
Point
Rel
Hum
%
Delta-T
°C
Wind Press
QNH
hPa
Press
MSL
hPa
Rain
since 9 am
mm
Dir
 
Spd
km/h
Gust
km/h
Spd
kts
Gust
kts
30/08:00am 8.7 8.1 7.5 92 0.6 NNE 0 0 0 0 - - 0.0
30/07:30am 8.2 7.5 7.1 93 0.5 N 0 0 0 0 - - 0.0
30/07:00am 7.8 7.0 6.7 93 0.5 CALM 0 0 0 0 - - 0.0
30/06:30am 7.5 6.7 6.3 92 0.6 CALM 0 0 0 0 - - 0.0
30/06:00am 8.0 5.9 6.8 92 0.6 SSE 7 9 4 5 - - 0.0
30/05:30am 7.4 5.2 6.2 92 0.6 ESE 7 7 4 4 - - 0.0
30/05:00am 7.4 5.4 6.2 92 0.6 SE 6 7 3 4 - - 0.0
30/04:30am 7.2 5.1 5.8 91 0.6 NW 6 7 3 4 - - 0.0
30/04:00am 7.7 6.5 6.3 91 0.6 SE 2 6 1 3 - - 0.0
30/03:30am 7.7 6.1 6.3 91 0.6 NW 4 6 2 3 - - 0.0
30/03:00am 8.1 7.0 6.7 91 0.7 N 2 7 1 4 - - 0.0
30/02:30am 8.1 7.0 6.7 91 0.7 ENE 2 6 1 3 - - 0.0
30/02:00am 8.0 6.1 6.5 90 0.7 SE 6 7 3 4 - - 0.0
30/01:30am 8.3 7.5 6.6 89 0.8 CALM 0 0 0 0 - - 0.0
30/01:00am 8.5 7.8 6.8 89 0.8 CALM 0 0 0 0 - - 0.0
30/12:30am 9.0 8.4 7.3 89 0.8 CALM 0 0 0 0 - - 0.0
30/12:00am 8.9 7.9 7.2 89 0.8 ESE 2 6 1 3 - - 0.0
 
Date/Time
EST
Temp
°C
App
Temp
°C
Dew
Point
Rel
Hum
%
Delta-T
°C
Wind Press
QNH
hPa
Press
MSL
hPa
Rain
since 9 am
mm
Dir
 
Spd
km/h
Gust
km/h
Spd
kts
Gust
kts
29/11:30pm 9.0 6.7 7.3 89 0.8 NNE 9 11 5 6 - - 0.0
29/11:00pm 9.6 8.3 7.7 88 0.9 NNE 4 11 2 6 - - 0.0
29/10:30pm 9.7 9.1 7.6 87 1.0 CALM 0 6 0 3 - - 0.0
29/10:00pm 9.7 8.1 7.8 88 0.9 SE 6 7 3 4 - - 0.0
29/09:30pm 9.4 7.5 7.5 88 0.9 ESE 7 7 4 4 - - 0.0
29/09:00pm 9.6 9.0 7.5 87 1.0 CALM 0 7 0 4 - - 0.0
29/08:30pm 9.9 9.4 7.7 86 1.1 CALM 0 0 0 0 - - 0.0
29/08:00pm 10.1 8.4 7.7 85 1.2 NE 6 9 3 5 - - 0.0
29/07:30pm 10.1 9.5 7.5 84 1.3 CALM 0 0 0 0 - - 0.0
29/07:00pm 9.8 9.2 7.2 84 1.2 CALM 0 0 0 0 - - 0.0
29/06:30pm 9.6 8.8 6.5 81 1.5 CALM 0 0 0 0 - - 0.0
29/06:00pm 10.3 8.7 6.5 77 1.8 WNW 4 7 2 4 - - 0.0
29/05:30pm 12.0 10.3 7.5 74 2.2 NNW 6 7 3 4 - - 0.0
29/05:00pm 13.3 11.1 7.7 69 2.8 N 9 13 5 7 - - 0.0
29/04:30pm 14.2 11.3 8.2 67 3.0 NNE 13 17 7 9 - - 0.0
29/04:00pm 15.2 12.7 6.5 56 4.3 NNE 9 13 5 7 - - 0.0
29/03:30pm 16.0 12.7 6.2 52 4.8 NNE 13 19 7 10 - - 0.0
29/03:00pm 16.9 14.5 5.2 46 5.7 NW 7 9 4 5 - - 0.0
29/02:30pm 16.1 13.6 4.5 46 5.5 NNW 7 15 4 8 - - 0.0
29/02:00pm 16.1 13.6 3.5 43 5.9 W 6 11 3 6 - - 0.0
29/01:30pm 16.2 13.4 2.2 39 6.3 N 6 9 3 5 - - 0.0
29/01:00pm 16.0 13.3 2.8 41 6.0 NNE 6 9 3 5 - - 0.0
29/12:30pm 14.9 11.7 3.1 45 5.4 N 9 11 5 6 - - 0.0
29/12:00pm 14.5 12.3 5.3 54 4.4 NNW 6 9 3 5 - - 0.0
29/11:30am 14.1 12.0 6.0 58 3.9 N 6 11 3 6 - - 0.0
29/11:00am 12.8 10.9 6.8 67 2.9 N 6 7 3 4 - - 0.0
29/10:30am 10.9 9.0 6.8 76 2.0 N 6 7 3 4 - - 0.0
29/10:00am 8.7 6.8 6.5 86 1.0 N 6 9 3 5 - - 0.0
29/09:30am 6.0 3.5 5.0 93 0.4 N 7 9 4 5 - - 0.0
29/09:00am 3.7 1.0 2.8 94 0.4 SE 6 7 3 4 - - 0.0
29/08:30am 1.5 -0.4 0.6 94 0.3 CALM 0 0 0 0 - - 0.0
29/08:00am 0.3 -3.1 -0.7 93 0.4 NNE 7 7 4 4 - - 0.0
29/07:30am -0.1 -2.2 -1.1 93 0.4 CALM 0 6 0 3 - - 0.0
29/07:00am -0.8 -3.0 -1.8 93 0.3 CALM 0 0 0 0 - - 0.0
29/06:30am -0.5 -2.7 -1.5 93 0.3 CALM 0 0 0 0 - - 0.0
29/06:00am -0.2 -3.1 -1.2 93 0.3 SE 4 9 2 5 - - 0.0
29/05:30am 0.2 -3.0 -0.8 93 0.4 ENE 6 7 3 4 - - 0.0
29/05:00am 0.4 -1.7 -0.7 92 0.4 CALM 0 6 0 3 - - 0.0
29/04:30am 0.2 -4.0 -0.9 92 0.4 SE 11 13 6 7 - - 0.0
29/04:00am 0.8 -1.2 -0.3 92 0.4 CALM 0 4 0 2 - - 0.0
29/03:30am 0.6 -1.5 -0.5 92 0.4 CALM 0 0 0 0 - - 0.0
29/03:00am 1.2 -1.2 0.0 92 0.4 SSW 2 7 1 4 - - 0.0
29/02:30am 1.3 -1.4 0.0 91 0.5 S 4 9 2 5 - - 0.0
29/02:00am 2.0 0.1 0.7 91 0.5 CALM 0 0 0 0 - - 0.0
29/01:30am 2.3 0.4 0.8 90 0.6 CALM 0 6 0 3 - - 0.0
29/01:00am 2.9 1.2 1.6 91 0.5 CALM 0 0 0 0 - - 0.0
29/12:30am 3.4 1.0 1.9 90 0.6 SE 4 6 2 3 - - 0.0
29/12:00am 4.2 1.5 2.9 91 0.5 WSW 6 9 3 5 - - 0.0
 
Date/Time
EST
Temp
°C
App
Temp
°C
Dew
Point
Rel
Hum
%
Delta-T
°C
Wind Press
QNH
hPa
Press
MSL
hPa
Rain
since 9 am
mm
Dir
 
Spd
km/h
Gust
km/h
Spd
kts
Gust
kts
28/11:30pm 4.1 2.5 2.5 89 0.7 CALM 0 0 0 0 - - 0.0
28/11:00pm 4.3 2.7 2.5 88 0.7 CALM 0 0 0 0 - - 0.0
28/10:30pm 5.1 3.7 3.3 88 0.8 CALM 0 0 0 0 - - 0.0
28/10:00pm 5.3 3.9 3.6 89 0.7 CALM 0 7 0 4 - - 0.0
28/09:30pm 5.4 3.6 3.3 86 0.9 ESE 2 7 1 4 - - 0.0
28/09:00pm 5.5 4.0 3.0 84 1.0 CALM 0 0 0 0 - - 0.0
28/08:30pm 6.4 3.7 3.6 82 1.2 SE 7 9 4 5 - - 0.0
28/08:00pm 7.2 5.9 4.0 80 1.4 CALM 0 6 0 3 - - 0.0
28/07:30pm 8.9 6.5 4.3 73 2.1 E 6 7 3 4 - - 0.0
28/07:00pm 10.2 7.9 5.0 70 2.4 ESE 6 9 3 5 - - 0.0
28/06:30pm 10.8 8.4 5.1 68 2.6 ESE 7 7 4 4 - - 0.0
28/06:00pm 11.6 8.8 5.0 64 3.1 ENE 9 17 5 9 - - 0.0
28/05:30pm 13.2 10.9 5.6 60 3.6 ENE 7 13 4 7 - - 0.0
28/05:00pm 14.4 12.2 6.3 58 3.9 NE 7 9 4 5 - - 0.0
28/04:30pm 14.2 11.6 6.1 58 3.9 N 9 13 5 7 - - 0.0
28/04:00pm 15.3 12.1 6.8 57 4.2 N 13 17 7 9 - - 0.0
28/03:30pm 15.4 12.5 6.4 55 4.4 N 11 19 6 10 - - 0.0
28/03:00pm 15.5 11.8 6.5 55 4.4 NNE 15 20 8 11 - - 0.0
28/02:30pm 15.5 12.2 6.5 55 4.4 NNE 13 19 7 10 - - 0.0
28/02:00pm 15.7 13.2 6.7 55 4.5 NNE 9 17 5 9 - - 0.0
28/01:30pm 14.6 12.5 5.9 56 4.2 ENE 6 11 3 6 - - 0.0
28/01:00pm 14.4 11.8 6.0 57 4.1 NE 9 15 5 8 - - 0.0
28/12:30pm 14.6 12.6 6.2 57 4.1 N 6 15 3 8 - - 0.0
28/12:00pm 14.1 12.2 6.7 61 3.6 N 6 9 3 5 - - 0.0
28/11:30am 13.4 11.5 6.5 63 3.3 N 6 7 3 4 - - 0.0
28/11:00am 13.6 11.6 6.9 64 3.3 NNE 7 11 4 6 - - 0.0
28/10:30am 11.8 9.9 6.9 72 2.4 N 6 9 3 5 - - 0.0
28/10:00am 11.3 9.3 7.2 76 2.0 N 7 9 4 5 - - 0.0
28/09:30am 9.4 7.4 6.3 81 1.5 NNW 6 7 3 4 - - 0.0
28/09:00am 7.3 6.3 5.8 90 0.7 CALM 0 2 0 1 - - 0.0
28/08:30am 4.2 2.7 3.2 93 0.4 CALM 0 0 0 0 - - 0.0
28/08:00am 3.2 1.6 2.2 93 0.4 CALM 0 0 0 0 - - 0.0
28/07:30am 2.4 -0.5 1.4 93 0.4 ESE 6 7 3 4 - - 0.0
28/07:00am 1.7 -0.2 0.7 93 0.4 CALM 0 0 0 0 - - 0.0
28/06:30am 1.9 0.1 0.9 93 0.4 CALM 0 0 0 0 - - 0.0
28/06:00am 1.5 -0.8 0.5 93 0.4 SE 2 6 1 3 - - 0.0
28/05:30am 1.6 -0.3 0.6 93 0.4 CALM 0 0 0 0 - - 0.0
28/05:00am 1.6 -1.1 0.6 93 0.4 SW 4 6 2 3 - - 0.0
28/04:30am 1.4 -0.6 0.2 92 0.4 CALM 0 0 0 0 - - 0.0
28/04:00am 1.2 -0.8 0.0 92 0.4 CALM 0 0 0 0 - - 0.0
28/03:30am 0.9 -1.1 -0.4 91 0.5 CALM 0 0 0 0 - - 0.0
28/03:00am 1.3 -0.7 0.0 91 0.5 CALM 0 0 0 0 - - 0.0
28/02:30am 1.4 -0.6 0.1 91 0.5 CALM 0 0 0 0 - - 0.0
28/02:00am 1.6 -0.3 0.3 91 0.5 CALM 0 0 0 0 - - 0.0
28/01:30am 1.8 -0.1 0.5 91 0.5 CALM 0 0 0 0 - - 0.0
28/01:00am 2.3 -0.7 1.0 91 0.5 SSE 6 7 3 4 - - 0.0
28/12:30am 2.5 0.7 1.2 91 0.5 CALM 0 4 0 2 - - 0.0
28/12:00am 2.5 0.7 1.0 90 0.6 CALM 0 0 0 0 - - 0.0
 
Date/Time
EST
Temp
°C
App
Temp
°C
Dew
Point
Rel
Hum
%
Delta-T
°C
Wind Press
QNH
hPa
Press
MSL
hPa
Rain
since 9 am
mm
Dir
 
Spd
km/h
Gust
km/h
Spd
kts
Gust
kts
27/11:30pm 2.7 0.1 1.2 90 0.6 SSE 4 7 2 4 - - 0.0
27/11:00pm 3.1 0.2 1.6 90 0.6 SSE 6 7 3 4 - - 0.0
27/10:30pm 3.4 1.7 1.8 89 0.6 CALM 0 4 0 2 - - 0.0
27/10:00pm 3.9 1.9 2.1 88 0.7 W 2 6 1 3 - - 0.0
27/09:30pm 4.5 2.9 2.5 87 0.8 CALM 0 0 0 0 - - 0.0
27/09:00pm 5.3 3.9 3.3 87 0.8 CALM 0 0 0 0 - - 0.0
27/08:30pm 5.9 4.5 3.6 85 1.0 CALM 0 0 0 0 - - 0.0
27/08:00pm 6.9 4.9 4.2 83 1.2 SSE 4 9 2 5 - - 0.0
27/07:30pm 7.7 6.1 4.5 80 1.4 SE 2 6 1 3 - - 0.0
27/07:00pm 9.2 6.9 5.0 75 1.9 SSE 6 7 3 4 - - 0.0
27/06:30pm 11.6 10.3 6.1 69 2.6 SE 2 6 1 3 - - 0.0
27/06:00pm 12.5 9.6 6.3 66 3.0 ENE 11 17 6 9 - - 0.0
27/05:30pm 13.4 10.5 6.5 63 3.3 ENE 11 17 6 9 - - 0.0
27/05:00pm 14.7 12.4 5.8 55 4.3 NNE 7 11 4 6 - - 0.0
27/04:30pm 14.9 11.2 6.5 57 4.1 N 15 22 8 12 - - 0.0
27/04:00pm 16.0 11.8 5.9 51 4.9 N 17 22 9 12 - - 0.0
27/03:30pm 16.9 13.5 6.1 49 5.3 N 13 22 7 12 - - 0.0
27/03:00pm 16.6 12.5 6.4 51 5.1 N 17 24 9 13 - - 0.0
27/02:30pm 16.6 12.5 6.1 50 5.2 N 17 22 9 12 - - 0.0
27/02:00pm 16.7 13.0 6.2 50 5.2 N 15 20 8 11 - - 0.0
27/01:30pm 15.9 11.8 6.3 53 4.7 N 17 26 9 14 - - 0.0
27/01:00pm 16.4 13.1 6.5 52 4.9 N 13 24 7 13 - - 0.0
27/12:30pm 15.9 12.6 6.3 53 4.7 N 13 22 7 12 - - 0.0
27/12:00pm 16.0 11.5 6.2 52 4.8 N 19 26 10 14 - - 0.0
27/11:30am 15.4 11.5 6.9 57 4.2 N 17 20 9 11 - - 0.0
27/11:00am 15.1 12.1 7.9 62 3.6 NNE 13 17 7 9 - - 0.0
27/10:30am 13.4 11.4 8.7 73 2.4 NE 9 13 5 7 - - 0.0
27/10:00am 10.4 9.3 8.5 88 0.9 WNW 4 9 2 5 - - 0.0
27/09:30am 7.9 6.8 7.1 95 0.4 NNW 2 9 1 5 - - 0.0
27/09:00am 6.1 3.9 5.4 95 0.3 NNE 6 7 3 4 - - 0.2
27/08:30am 4.8 3.5 4.1 95 0.3 CALM 0 0 0 0 - - 0.2

Other Formats:

Comma delimited format used in spreadsheet applications
http://www.bom.gov.au/fwo/IDT60801/IDT60801.95974.axf

JavaScript Object Notation format (JSON) in row-major order
http://www.bom.gov.au/fwo/IDT60801/IDT60801.95974.json